Terminal Aerodrome Forecast
Issued by NWS Shreveport, LA

Current Version | Previous Version | Text Only | Print | Product List | Glossary On
Versions: 1 2 3 4 5 6 7 8 9 10 11 12 13 14 15 16 17 18
059
FTUS44 KSHV 231120
TAFTXK
TAF
KTXK 231120Z 2312/2412 23010KT P6SM SCT030 OVC040
     FM231500 24008KT P6SM BKN015 OVC025
     FM231800 22008KT P6SM VCTS BKN035CB
     FM240000 31005KT P6SM SCT050 OVC250
     FM240300 05005KT P6SM OVC150=

USA.gov is the U.S. government's official web portal to all federal, state and local government web resources and services.